Accueil
METAR-TAF:

METAR-TAF

Aéroports :

Aéroport international de Tabriz

Tabriz, Iran

latitude: 38-05N, longitude: 046-17E, altitude: 1367 m

Observation

Le bulletin a été fait il y a 24 minutes, à 15:30 UTC
Vent 6 kt de sud-ouest
Température 20°C
Humidité 32%
Pression 1016 hPa
Visibilité 10 km ou plus
Quelques nuages à une hauteur de 3000 ft

METAR: OITT 171530Z 22006KT 9999 FEW030 20/03 Q1016 A3001

Heure: 20:24 (15:54 UTC)

Prévision

Le bulletin a été fait il y a 4 heures et 44 minutes, à 11:10 UTC
Prévision valable du 17 à 12 UTC au 18 à 18 UTC
Vent 8 kt de est
Visibilité: 7000 m

TAF: OITT 171110Z 1712/1818 08008KT 7000 NSC

Observations et prévisions météorologiques de plus de 4000 aéroports (messages METAR et TAF).

Les stations disponibles sont représentées par des disques jaunes et rouges sur la carte.

Passer la souris dessus pour voir le nom de la station.

Cliquer dessus pour voir les observations et prévisions météorologiques.

Pour changer de carte: cliquez sur les boutons verts avec une croix noire pour zoomer, sur le bouton vert avec un tiret pour effectuer un zoom arrière, ou sur les flèches vertes pour les cartes adjacentes.


METAR-TAF: